Time;durP1;ratioP1;P1;durP2;ratioP2;P2;SDS_P1;SDS_P2;PMS_P1;PMS_P2;Temp;Humidity;BMP_temperature;BMP_pressure;BME280_temperature;BME280_humidity;BME280_pressure;Samples;Min_cycle;Max_cycle;Signal;HPM_P1;HPM_P2
2021/12/11 00:00:14;;;;;;;21.77;10.47;;;;;;;;;;5084546;28;20859;-69
2021/12/11 00:02:41;;;;;;;23.63;11.38;;;;;;;;;;5079901;28;20315;-70
2021/12/11 00:05:08;;;;;;;21.50;11.38;;;;;;;;;;5083344;28;20058;-69
2021/12/11 00:07:34;;;;;;;18.20;10.45;;;;;;;;;;5084042;28;20456;-69
2021/12/11 00:10:09;;;;;;;19.95;10.98;;;;;;;;;;5082173;28;20048;-70
2021/12/11 00:12:40;;;;;;;18.30;10.10;;;;;;;;;;5079107;28;20471;-70
2021/12/11 00:15:09;;;;;;;18.75;10.73;;;;;;;;;;5081045;28;20432;-70
2021/12/11 00:17:36;;;;;;;23.25;10.82;;;;;;;;;;5081302;28;20049;-70
2021/12/11 00:20:04;;;;;;;17.42;9.45;;;;;;;;;;5081406;28;20048;-70
2021/12/11 00:22:31;;;;;;;22.00;9.85;;;;;;;;;;5083459;28;20078;-70
2021/12/11 00:24:59;;;;;;;19.63;10.88;;;;;;;;;;5082780;28;20044;-70
2021/12/11 00:27:28;;;;;;;18.90;10.50;;;;;;;;;;5081690;28;20052;-70
2021/12/11 00:29:54;;;;;;;23.13;11.82;;;;;;;;;;5081206;28;20051;-70
2021/12/11 00:32:23;;;;;;;17.73;9.70;;;;;;;;;;5080476;28;20408;-70
2021/12/11 00:34:51;;;;;;;20.10;10.45;;;;;;;;;;5064288;28;20044;-70
2021/12/11 00:37:19;;;;;;;19.02;10.18;;;;;;;;;;5066157;28;20048;-70
2021/12/11 00:39:50;;;;;;;20.58;10.00;;;;;;;;;;5059215;28;20059;-70
2021/12/11 00:42:16;;;;;;;20.05;9.90;;;;;;;;;;5080196;28;20070;-70
2021/12/11 00:44:45;;;;;;;17.50;9.15;;;;;;;;;;5078794;28;20056;-70
2021/12/11 00:47:13;;;;;;;18.98;10.15;;;;;;;;;;5081509;28;20392;-70
2021/12/11 00:49:57;;;;;;;21.20;9.68;;;;;;;;;;5083078;28;20040;-70
2021/12/11 00:52:50;;;;;;;19.75;10.18;;;;;;;;;;5080800;28;20051;-70
2021/12/11 00:55:22;;;;;;;15.60;9.35;;;;;;;;;;5079652;28;20078;-70
2021/12/11 00:57:59;;;;;;;22.65;10.23;;;;;;;;;;5082023;28;20051;-70
2021/12/11 01:00:26;;;;;;;19.40;10.27;;;;;;;;;;5081516;28;20048;-70
2021/12/11 01:02:53;;;;;;;20.90;9.88;;;;;;;;;;5082015;28;20056;-69
2021/12/11 01:05:21;;;;;;;18.48;9.90;;;;;;;;;;5083220;28;20040;-70
2021/12/11 01:07:47;;;;;;;15.95;9.80;;;;;;;;;;5082410;28;20050;-69
2021/12/11 01:10:24;;;;;;;19.20;9.88;;;;;;;;;;5079097;28;20052;-70
2021/12/11 01:12:58;;;;;;;18.10;9.80;;;;;;;;;;5082285;28;20048;-70
2021/12/11 01:15:36;;;;;;;21.95;10.90;;;;;;;;;;5082836;28;20048;-70
2021/12/11 01:21:25;;;;;;;18.17;9.90;;;;;;;;;;5086538;28;20055;-71
2021/12/11 01:26:31;;;;;;;19.73;9.75;;;;;;;;;;5084001;28;20404;-70
2021/12/11 01:28:57;;;;;;;19.30;9.90;;;;;;;;;;5084353;28;20054;-70
2021/12/11 01:31:24;;;;;;;18.08;9.48;;;;;;;;;;5084472;28;20052;-71
2021/12/11 01:33:52;;;;;;;15.52;8.50;;;;;;;;;;5081685;28;20040;-71
2021/12/11 01:36:18;;;;;;;15.63;9.00;;;;;;;;;;5082589;28;20143;-72
2021/12/11 01:38:45;;;;;;;20.02;8.93;;;;;;;;;;5085186;28;20143;-70
2021/12/11 01:41:16;;;;;;;18.67;9.35;;;;;;;;;;5081882;28;20044;-71
2021/12/11 01:43:44;;;;;;;14.25;8.38;;;;;;;;;;5084194;28;20460;-70
2021/12/11 01:46:11;;;;;;;22.17;10.00;;;;;;;;;;5084745;28;20040;-70
2021/12/11 01:48:41;;;;;;;18.23;9.02;;;;;;;;;;5086495;28;20044;-70
2021/12/11 01:51:17;;;;;;;16.95;9.43;;;;;;;;;;5083958;28;20044;-70
2021/12/11 01:53:50;;;;;;;21.35;10.38;;;;;;;;;;5085213;28;20496;-70
2021/12/11 01:56:18;;;;;;;17.20;9.70;;;;;;;;;;5071353;28;20075;-72
2021/12/11 01:58:56;;;;;;;14.65;9.18;;;;;;;;;;5084501;28;20675;-72
2021/12/11 02:01:25;;;;;;;15.95;9.07;;;;;;;;;;5084663;28;20054;-72
2021/12/11 02:03:53;;;;;;;14.90;9.32;;;;;;;;;;5085677;28;20055;-70
2021/12/11 02:06:19;;;;;;;20.75;9.68;;;;;;;;;;5086285;28;20063;-71
2021/12/11 02:08:45;;;;;;;19.77;9.07;;;;;;;;;;5082735;28;20051;-72
2021/12/11 02:11:23;;;;;;;20.95;9.85;;;;;;;;;;5084465;28;20079;-70
2021/12/11 02:13:54;;;;;;;24.10;9.88;;;;;;;;;;5084987;28;20135;-70
2021/12/11 02:16:29;;;;;;;17.92;9.77;;;;;;;;;;5084774;28;20991;-70
2021/12/11 02:18:59;;;;;;;16.27;9.77;;;;;;;;;;5082975;28;20055;-71
2021/12/11 02:21:28;;;;;;;15.18;9.20;;;;;;;;;;5085458;28;20138;-70
2021/12/11 02:23:58;;;;;;;17.55;9.60;;;;;;;;;;5083691;28;20063;-70
2021/12/11 02:26:25;;;;;;;16.83;9.43;;;;;;;;;;5069584;28;20071;-70
2021/12/11 02:29:02;;;;;;;19.08;10.25;;;;;;;;;;5070591;28;20058;-71
2021/12/11 02:31:42;;;;;;;18.35;9.50;;;;;;;;;;5072469;28;20138;-70
2021/12/11 02:34:11;;;;;;;22.40;10.15;;;;;;;;;;5068372;28;20044;-66
2021/12/11 02:36:43;;;;;;;18.42;9.75;;;;;;;;;;5084536;28;20052;-66
2021/12/11 02:39:17;;;;;;;19.70;10.35;;;;;;;;;;5084713;28;20772;-67
2021/12/11 02:41:49;;;;;;;18.80;10.48;;;;;;;;;;5082904;28;20074;-66
2021/12/11 02:44:32;;;;;;;17.17;10.88;;;;;;;;;;5083114;28;20055;-66
2021/12/11 02:47:21;;;;;;;16.63;10.07;;;;;;;;;;5085539;28;20228;-66
2021/12/11 02:49:51;;;;;;;18.77;10.38;;;;;;;;;;5083154;28;20082;-66
2021/12/11 02:52:18;;;;;;;19.55;10.98;;;;;;;;;;5082384;28;20876;-66
2021/12/11 02:54:47;;;;;;;20.60;10.65;;;;;;;;;;5085231;28;20059;-66
2021/12/11 02:57:17;;;;;;;21.83;10.38;;;;;;;;;;5084083;28;20692;-66
2021/12/11 02:59:45;;;;;;;19.30;10.20;;;;;;;;;;5081982;28;20059;-66
2021/12/11 03:02:14;;;;;;;20.65;10.60;;;;;;;;;;5085585;28;20055;-66
2021/12/11 03:04:53;;;;;;;23.23;10.75;;;;;;;;;;5085536;28;20047;-66
2021/12/11 03:07:24;;;;;;;24.55;11.27;;;;;;;;;;5082923;28;20383;-65
2021/12/11 03:09:52;;;;;;;19.60;10.68;;;;;;;;;;5083276;28;20055;-66
2021/12/11 03:12:20;;;;;;;18.67;10.65;;;;;;;;;;5085301;28;20079;-66
2021/12/11 03:14:47;;;;;;;21.00;10.47;;;;;;;;;;5082942;28;20054;-65
2021/12/11 03:17:15;;;;;;;21.35;10.52;;;;;;;;;;5068472;28;20134;-66
2021/12/11 03:19:43;;;;;;;22.63;11.18;;;;;;;;;;5084441;28;20439;-66
2021/12/11 03:22:11;;;;;;;17.73;10.68;;;;;;;;;;5083065;28;20055;-66
2021/12/11 03:24:38;;;;;;;18.10;11.43;;;;;;;;;;5081751;28;20064;-65
2021/12/11 03:27:05;;;;;;;22.40;10.90;;;;;;;;;;5084240;28;20044;-66
2021/12/11 03:29:31;;;;;;;21.98;10.73;;;;;;;;;;5084719;28;20097;-66
2021/12/11 03:31:57;;;;;;;19.05;10.65;;;;;;;;;;5083230;28;20055;-66
2021/12/11 03:34:26;;;;;;;24.00;11.00;;;;;;;;;;5083820;28;20048;-66
2021/12/11 03:36:54;;;;;;;19.80;10.95;;;;;;;;;;5082911;28;20054;-65
2021/12/11 03:39:22;;;;;;;20.80;10.38;;;;;;;;;;5084089;28;20564;-65
2021/12/11 03:41:49;;;;;;;19.30;10.98;;;;;;;;;;5083987;28;20052;-66
2021/12/11 03:44:16;;;;;;;18.77;10.52;;;;;;;;;;5085315;28;20047;-65
2021/12/11 03:46:43;;;;;;;22.42;11.43;;;;;;;;;;5085443;28;20054;-66
2021/12/11 03:49:13;;;;;;;20.90;11.23;;;;;;;;;;5083776;28;20134;-65
2021/12/11 03:51:41;;;;;;;20.02;11.02;;;;;;;;;;5084478;28;20043;-66
2021/12/11 03:54:12;;;;;;;18.55;10.32;;;;;;;;;;5084665;28;20048;-66
2021/12/11 03:56:38;;;;;;;22.35;11.27;;;;;;;;;;5083983;28;20050;-66
2021/12/11 03:59:09;;;;;;;19.45;10.85;;;;;;;;;;5083028;28;20165;-65
2021/12/11 04:01:40;;;;;;;16.73;10.63;;;;;;;;;;5084724;28;20063;-65
2021/12/11 04:04:10;;;;;;;24.30;13.10;;;;;;;;;;5085380;28;20047;-65
2021/12/11 04:06:36;;;;;;;19.98;11.27;;;;;;;;;;5082035;28;20051;-66
2021/12/11 04:09:04;;;;;;;25.98;13.63;;;;;;;;;;5085213;28;20237;-66
2021/12/11 04:11:31;;;;;;;21.50;11.85;;;;;;;;;;5086147;28;20048;-65
2021/12/11 04:14:00;;;;;;;24.52;13.23;;;;;;;;;;5085667;28;20216;-66
2021/12/11 04:16:27;;;;;;;22.58;13.30;;;;;;;;;;5082680;28;20044;-65
2021/12/11 04:18:53;;;;;;;24.63;13.23;;;;;;;;;;5083804;28;20149;-66
2021/12/11 04:21:20;;;;;;;22.40;12.13;;;;;;;;;;5085172;28;20047;-66
2021/12/11 04:23:46;;;;;;;20.45;12.18;;;;;;;;;;5081414;28;20059;-66
2021/12/11 04:26:12;;;;;;;25.73;13.10;;;;;;;;;;5084885;28;20052;-65
2021/12/11 04:28:40;;;;;;;21.77;11.95;;;;;;;;;;5084655;28;20480;-65
2021/12/11 04:31:09;;;;;;;23.85;12.57;;;;;;;;;;5084550;28;20043;-65
2021/12/11 04:33:38;;;;;;;19.63;11.38;;;;;;;;;;5084187;28;20452;-66
2021/12/11 04:36:04;;;;;;;;;;;;;;;;;;5085331;28;20044;-66
2021/12/11 04:38:31;;;;;;;22.85;12.32;;;;;;;;;;5084072;28;20198;-66
2021/12/11 04:40:59;;;;;;;23.13;11.98;;;;;;;;;;5083485;28;20459;-66
2021/12/11 04:43:26;;;;;;;27.25;12.65;;;;;;;;;;5084351;28;20051;-66
2021/12/11 04:45:56;;;;;;;22.02;12.63;;;;;;;;;;5086230;28;20710;-65
2021/12/11 04:53:54;;;;;;;30.60;12.48;;;;;;;;;;5089184;28;20048;-66
2021/12/11 04:59:31;;;;;;;22.77;13.18;;;;;;;;;;5087247;28;20051;-66
2021/12/11 05:05:04;;;;;;;26.85;13.95;;;;;;;;;;5075462;28;20047;-65
2021/12/11 05:07:22;;;;;;;27.13;13.93;;;;;;;;;;5082121;28;20596;-66
2021/12/11 05:10:16;;;;;;;27.92;14.45;;;;;;;;;;5088263;28;20066;-65
2021/12/11 05:12:44;;;;;;;24.85;13.05;;;;;;;;;;5064576;28;20495;-66
2021/12/11 05:15:36;;;;;;;27.08;13.93;;;;;;;;;;5087774;28;20047;-66
2021/12/11 05:18:04;;;;;;;20.45;12.77;;;;;;;;;;5087618;28;20088;-66
2021/12/11 05:20:32;;;;;;;27.33;15.02;;;;;;;;;;5089464;28;20764;-66
2021/12/11 05:22:58;;;;;;;25.48;13.77;;;;;;;;;;5088013;28;20478;-65
2021/12/11 05:25:25;;;;;;;29.83;14.15;;;;;;;;;;5088677;28;20386;-65
2021/12/11 05:27:52;;;;;;;23.15;12.50;;;;;;;;;;5089108;28;20920;-66
2021/12/11 05:30:21;;;;;;;27.05;14.18;;;;;;;;;;5088664;28;20117;-66
2021/12/11 05:32:48;;;;;;;21.55;12.50;;;;;;;;;;5086010;28;20185;-66
2021/12/11 05:35:15;;;;;;;33.80;13.68;;;;;;;;;;5088657;28;20048;-65
2021/12/11 05:37:42;;;;;;;30.08;15.23;;;;;;;;;;5089830;28;20043;-66
2021/12/11 05:40:09;;;;;;;29.50;14.48;;;;;;;;;;5086722;28;20540;-66
2021/12/11 05:42:36;;;;;;;26.27;13.88;;;;;;;;;;5086414;28;20135;-66
2021/12/11 05:45:04;;;;;;;25.52;13.43;;;;;;;;;;5089354;28;20047;-65
2021/12/11 05:47:30;;;;;;;24.83;14.55;;;;;;;;;;5087980;28;20624;-65
2021/12/11 05:49:58;;;;;;;25.02;13.55;;;;;;;;;;5086528;28;20058;-66
2021/12/11 05:52:24;;;;;;;27.02;13.68;;;;;;;;;;5087157;28;20044;-66
2021/12/11 05:54:51;;;;;;;25.02;13.07;;;;;;;;;;5086430;28;20058;-66
2021/12/11 05:57:20;;;;;;;30.35;14.25;;;;;;;;;;5086218;28;20051;-66
2021/12/11 05:59:47;;;;;;;24.13;13.32;;;;;;;;;;5086635;28;20051;-66
2021/12/11 06:02:19;;;;;;;24.75;13.82;;;;;;;;;;5089450;28;20483;-66
2021/12/11 06:04:49;;;;;;;28.90;13.40;;;;;;;;;;5085330;28;20534;-66
2021/12/11 06:07:16;;;;;;;23.70;13.25;;;;;;;;;;5087433;28;20469;-66
2021/12/11 06:09:45;;;;;;;27.77;14.48;;;;;;;;;;5087320;28;20044;-66
2021/12/11 06:12:13;;;;;;;26.33;13.98;;;;;;;;;;5088199;28;20055;-65
2021/12/11 06:14:40;;;;;;;26.33;13.27;;;;;;;;;;5085520;28;20075;-66
2021/12/11 06:17:10;;;;;;;33.28;13.95;;;;;;;;;;5087557;28;20051;-66
2021/12/11 06:19:37;;;;;;;24.52;13.57;;;;;;;;;;5090822;28;20062;-66
2021/12/11 06:22:04;;;;;;;24.52;13.15;;;;;;;;;;5086500;28;20158;-66
2021/12/11 06:24:30;;;;;;;23.00;13.30;;;;;;;;;;5086865;28;20051;-66
2021/12/11 06:26:57;;;;;;;22.75;12.90;;;;;;;;;;5086735;28;20036;-66
2021/12/11 06:29:24;;;;;;;25.13;13.25;;;;;;;;;;5087625;28;20044;-65
2021/12/11 06:31:51;;;;;;;30.98;13.68;;;;;;;;;;5083387;28;20059;-66
2021/12/11 06:34:18;;;;;;;25.10;13.27;;;;;;;;;;5086533;28;20058;-65
2021/12/11 06:36:44;;;;;;;28.83;14.90;;;;;;;;;;5070741;28;20071;-66
2021/12/11 06:39:12;;;;;;;24.50;14.48;;;;;;;;;;5085013;28;20055;-66
2021/12/11 06:41:39;;;;;;;28.80;14.67;;;;;;;;;;5083778;28;20074;-66
2021/12/11 06:44:06;;;;;;;27.15;13.40;;;;;;;;;;5085018;28;20043;-66
2021/12/11 06:46:34;;;;;;;30.45;14.63;;;;;;;;;;5085230;28;20638;-66
2021/12/11 06:49:01;;;;;;;30.20;15.48;;;;;;;;;;5082123;28;20459;-66
2021/12/11 06:51:28;;;;;;;31.63;15.00;;;;;;;;;;5084363;28;20044;-66
2021/12/11 06:53:55;;;;;;;25.33;13.70;;;;;;;;;;5085593;28;20777;-67
2021/12/11 06:56:22;;;;;;;36.22;16.77;;;;;;;;;;5084706;28;20044;-66
2021/12/11 06:58:51;;;;;;;29.50;14.68;;;;;;;;;;5084479;28;20641;-66
2021/12/11 07:01:18;;;;;;;29.17;15.18;;;;;;;;;;5085917;28;20060;-67
2021/12/11 07:03:45;;;;;;;30.35;14.85;;;;;;;;;;5084516;28;20049;-66
2021/12/11 07:06:12;;;;;;;27.98;14.52;;;;;;;;;;5082710;28;20613;-66
2021/12/11 07:08:39;;;;;;;30.67;14.27;;;;;;;;;;5082605;28;20571;-66
2021/12/11 07:11:06;;;;;;;28.75;14.95;;;;;;;;;;5084375;28;20498;-66
2021/12/11 07:13:33;;;;;;;36.33;16.67;;;;;;;;;;5084409;28;20607;-66
2021/12/11 07:16:00;;;;;;;30.77;15.27;;;;;;;;;;5084932;28;20058;-66
2021/12/11 07:18:27;;;;;;;30.88;15.55;;;;;;;;;;5085256;28;20052;-66
2021/12/11 07:20:54;;;;;;;31.83;15.15;;;;;;;;;;5084202;28;20056;-66
2021/12/11 07:23:21;;;;;;;27.67;14.13;;;;;;;;;;5084586;28;20048;-66
2021/12/11 07:25:54;;;;;;;27.23;14.18;;;;;;;;;;5083714;28;20070;-66
2021/12/11 07:28:21;;;;;;;30.77;14.88;;;;;;;;;;5085422;28;20056;-66
2021/12/11 07:30:49;;;;;;;29.88;14.93;;;;;;;;;;5082841;28;20052;-66
2021/12/11 07:33:16;;;;;;;30.00;15.70;;;;;;;;;;5084679;28;20044;-66
2021/12/11 07:35:44;;;;;;;26.10;14.25;;;;;;;;;;5085585;28;20066;-66
2021/12/11 07:38:11;;;;;;;28.08;15.10;;;;;;;;;;5083516;28;20039;-66
2021/12/11 07:40:42;;;;;;;22.40;14.00;;;;;;;;;;5083181;28;20054;-66
2021/12/11 07:43:10;;;;;;;30.25;15.82;;;;;;;;;;5085290;28;20616;-66
2021/12/11 07:45:36;;;;;;;25.30;14.43;;;;;;;;;;5085390;28;20048;-66
2021/12/11 07:48:04;;;;;;;24.65;13.80;;;;;;;;;;5083906;28;20074;-66
2021/12/11 07:50:30;;;;;;;24.52;14.70;;;;;;;;;;5084280;28;20047;-66
2021/12/11 07:52:57;;;;;;;24.77;13.60;;;;;;;;;;5085299;28;20067;-66
2021/12/11 07:55:24;;;;;;;23.90;14.57;;;;;;;;;;5083966;28;20623;-66
2021/12/11 07:57:50;;;;;;;22.60;13.63;;;;;;;;;;5083393;28;20059;-67
2021/12/11 08:00:19;;;;;;;23.83;13.80;;;;;;;;;;5083644;28;20070;-66
2021/12/11 08:02:45;;;;;;;;;;;;;;;;;;5085315;28;20699;-66
2021/12/11 08:05:12;;;;;;;27.17;14.77;;;;;;;;;;5083563;28;20019;-66
2021/12/11 08:07:39;;;;;;;27.98;15.38;;;;;;;;;;5082760;28;20051;-66
2021/12/11 08:10:07;;;;;;;30.95;15.70;;;;;;;;;;5084014;28;20043;-66
2021/12/11 08:12:33;;;;;;;30.10;16.38;;;;;;;;;;5082902;28;20066;-65
2021/12/11 08:14:59;;;;;;;29.98;15.27;;;;;;;;;;5081659;28;20048;-66
2021/12/11 08:17:26;;;;;;;30.92;15.93;;;;;;;;;;5083974;28;20047;-67
2021/12/11 08:19:52;;;;;;;28.63;15.18;;;;;;;;;;5084717;28;20044;-66
2021/12/11 08:22:18;;;;;;;28.25;14.77;;;;;;;;;;5083232;28;20071;-66
2021/12/11 08:24:45;;;;;;;32.90;15.93;;;;;;;;;;5078710;28;20375;-66
2021/12/11 08:27:14;;;;;;;28.08;15.02;;;;;;;;;;5082376;28;20539;-66
2021/12/11 08:29:42;;;;;;;28.33;15.57;;;;;;;;;;5083700;28;20505;-66
2021/12/11 08:32:09;;;;;;;30.40;15.93;;;;;;;;;;5082055;28;20051;-66
2021/12/11 08:34:36;;;;;;;28.30;16.00;;;;;;;;;;5083093;28;20059;-66
2021/12/11 08:37:04;;;;;;;28.95;15.60;;;;;;;;;;5085286;28;20059;-66
2021/12/11 08:39:31;;;;;;;25.13;14.80;;;;;;;;;;5082304;28;20493;-66
2021/12/11 08:41:59;;;;;;;27.48;15.30;;;;;;;;;;5082889;28;20260;-66
2021/12/11 08:44:25;;;;;;;30.83;16.50;;;;;;;;;;5083913;28;20044;-66
2021/12/11 08:46:54;;;;;;;28.15;14.82;;;;;;;;;;5082997;28;20074;-67
2021/12/11 08:49:24;;;;;;;27.63;15.55;;;;;;;;;;5081479;28;20040;-66
2021/12/11 08:51:53;;;;;;;28.50;15.30;;;;;;;;;;5083148;28;20809;-66
2021/12/11 08:54:20;;;;;;;24.63;13.88;;;;;;;;;;5084634;28;20040;-66
2021/12/11 08:56:47;;;;;;;25.15;14.57;;;;;;;;;;5080266;28;20055;-66
2021/12/11 08:59:15;;;;;;;28.00;15.25;;;;;;;;;;5083173;28;20048;-66
2021/12/11 09:01:46;;;;;;;25.75;15.13;;;;;;;;;;5082751;28;20833;-67
2021/12/11 09:04:17;;;;;;;28.58;15.05;;;;;;;;;;5084396;28;20047;-66
2021/12/11 09:06:48;;;;;;;25.90;14.13;;;;;;;;;;5082387;28;20384;-66
2021/12/11 09:09:26;;;;;;;28.65;15.40;;;;;;;;;;5083138;28;20052;-67
2021/12/11 09:12:13;;;;;;;26.97;15.10;;;;;;;;;;5072537;28;20056;-66
2021/12/11 09:14:59;;;;;;;29.42;15.52;;;;;;;;;;5063189;28;20055;-68
2021/12/11 09:17:29;;;;;;;29.50;15.45;;;;;;;;;;5075539;28;20040;-66
2021/12/11 09:20:15;;;;;;;31.55;15.73;;;;;;;;;;5078783;28;20048;-67
2021/12/11 09:22:45;;;;;;;27.27;15.88;;;;;;;;;;5063032;28;20051;-66
2021/12/11 09:25:16;;;;;;;26.50;14.68;;;;;;;;;;5080470;28;20266;-66
2021/12/11 09:27:48;;;;;;;27.92;15.93;;;;;;;;;;5074066;28;20051;-66
2021/12/11 09:30:33;;;;;;;26.92;14.27;;;;;;;;;;5077575;28;20753;-66
2021/12/11 09:33:09;;;;;;;28.50;15.40;;;;;;;;;;5077699;28;20518;-66
2021/12/11 09:35:41;;;;;;;33.53;15.98;;;;;;;;;;5079187;28;20059;-66
2021/12/11 09:38:10;;;;;;;26.83;15.48;;;;;;;;;;5078612;28;20055;-66
2021/12/11 09:40:36;;;;;;;29.70;16.00;;;;;;;;;;5081535;28;20052;-66
2021/12/11 09:43:03;;;;;;;27.92;15.30;;;;;;;;;;5081357;28;20059;-67
2021/12/11 09:45:38;;;;;;;30.83;15.30;;;;;;;;;;5088428;28;20385;-66
2021/12/11 09:48:07;;;;;;;25.02;14.75;;;;;;;;;;5079980;28;20778;-66
2021/12/11 09:50:35;;;;;;;;;;;;;;;;;;5078647;28;20711;-67
2021/12/11 09:53:01;;;;;;;28.35;15.00;;;;;;;;;;5078752;28;19932;-66
2021/12/11 09:55:31;;;;;;;31.20;15.85;;;;;;;;;;5078575;28;20405;-66
2021/12/11 09:58:00;;;;;;;29.30;16.38;;;;;;;;;;5082878;28;20131;-66
2021/12/11 10:00:33;;;;;;;28.35;15.05;;;;;;;;;;5084791;28;20056;-67
2021/12/11 10:03:00;;;;;;;33.97;16.40;;;;;;;;;;5083957;28;20043;-66
2021/12/11 10:05:31;;;;;;;29.67;16.25;;;;;;;;;;5088075;28;20052;-66
2021/12/11 10:08:27;;;;;;;29.00;16.00;;;;;;;;;;5077955;28;20059;-66
2021/12/11 10:11:08;;;;;;;31.58;17.70;;;;;;;;;;5076860;28;20048;-66
2021/12/11 10:13:37;;;;;;;27.27;15.32;;;;;;;;;;5086778;28;20051;-66
2021/12/11 10:16:04;;;;;;;30.35;16.52;;;;;;;;;;5076421;28;20047;-66
2021/12/11 10:18:34;;;;;;;31.88;17.20;;;;;;;;;;5082392;28;20048;-67
2021/12/11 10:21:00;;;;;;;27.42;15.07;;;;;;;;;;5086102;28;20047;-67
2021/12/11 10:23:28;;;;;;;30.63;17.27;;;;;;;;;;5072018;28;20588;-66
2021/12/11 10:25:57;;;;;;;35.22;18.83;;;;;;;;;;5078234;28;20051;-66
2021/12/11 10:28:24;;;;;;;34.72;18.45;;;;;;;;;;5079450;28;20066;-66
2021/12/11 10:30:52;;;;;;;37.15;19.52;;;;;;;;;;5076529;28;20048;-66
2021/12/11 10:33:20;;;;;;;34.47;19.63;;;;;;;;;;5076609;28;20048;-66
2021/12/11 10:35:48;;;;;;;37.80;19.33;;;;;;;;;;5077353;28;20044;-66
2021/12/11 10:38:15;;;;;;;36.22;19.50;;;;;;;;;;5083263;28;20421;-66
2021/12/11 10:40:46;;;;;;;42.28;20.13;;;;;;;;;;5078494;28;20056;-66
2021/12/11 10:43:14;;;;;;;38.53;19.42;;;;;;;;;;5078612;28;20555;-67
2021/12/11 10:45:41;;;;;;;;;;;;;;;;;;5077241;28;20044;-65
2021/12/11 10:48:09;;;;;;;36.22;17.25;;;;;;;;;;5078099;28;19934;-67
2021/12/11 10:50:42;;;;;;;33.45;17.85;;;;;;;;;;5083524;28;20043;-67
2021/12/11 10:53:10;;;;;;;44.60;18.30;;;;;;;;;;5086463;28;20055;-67
2021/12/11 10:55:38;;;;;;;40.47;16.67;;;;;;;;;;5082718;28;20044;-67
2021/12/11 10:58:10;;;;;;;33.72;17.25;;;;;;;;;;5079939;28;20056;-68
2021/12/11 11:00:39;;;;;;;39.00;17.77;;;;;;;;;;5076418;28;20161;-68
2021/12/11 11:03:08;;;;;;;35.25;18.02;;;;;;;;;;5077510;28;20134;-67
2021/12/11 11:05:35;;;;;;;44.50;18.33;;;;;;;;;;5078186;28;20050;-68
2021/12/11 11:08:06;;;;;;;34.80;17.67;;;;;;;;;;5077349;28;20126;-68
2021/12/11 11:10:34;;;;;;;41.72;19.02;;;;;;;;;;5077778;28;20048;-68
2021/12/11 11:13:02;;;;;;;55.58;17.67;;;;;;;;;;5078527;28;20055;-68
2021/12/11 11:15:29;;;;;;;45.78;18.70;;;;;;;;;;5075462;28;20683;-68
2021/12/11 11:17:56;;;;;;;41.83;19.40;;;;;;;;;;5077056;28;20072;-67
2021/12/11 11:20:27;;;;;;;34.88;17.02;;;;;;;;;;5077007;28;20067;-67
2021/12/11 11:22:54;;;;;;;63.33;15.98;;;;;;;;;;5076556;28;20595;-68
2021/12/11 11:25:30;;;;;;;170.93;20.27;;;;;;;;;;5077207;28;20052;-68
2021/12/11 11:27:59;;;;;;;123.22;18.67;;;;;;;;;;5076815;28;20052;-68
2021/12/11 11:30:38;;;;;;;125.25;18.15;;;;;;;;;;5077418;28;20063;-67
2021/12/11 11:33:07;;;;;;;87.20;17.13;;;;;;;;;;5076962;28;20151;-67
2021/12/11 11:35:35;;;;;;;96.68;17.67;;;;;;;;;;5076662;28;20059;-68
2021/12/11 11:38:03;;;;;;;85.63;17.63;;;;;;;;;;5076486;28;20646;-66
2021/12/11 11:40:37;;;;;;;137.13;20.00;;;;;;;;;;5076406;28;20059;-67
2021/12/11 11:43:05;;;;;;;46.38;17.45;;;;;;;;;;5076436;28;20051;-67
2021/12/11 11:45:31;;;;;;;91.57;18.65;;;;;;;;;;5058226;28;20054;-67
2021/12/11 11:47:58;;;;;;;63.92;17.27;;;;;;;;;;5075977;28;20060;-67
2021/12/11 11:50:29;;;;;;;68.82;18.52;;;;;;;;;;5076362;28;20435;-67
2021/12/11 11:52:56;;;;;;;50.55;18.40;;;;;;;;;;5076514;28;20166;-67
2021/12/11 11:55:25;;;;;;;60.30;16.98;;;;;;;;;;5074129;28;20040;-67
2021/12/11 11:57:52;;;;;;;80.53;18.00;;;;;;;;;;5070170;28;20066;-67
2021/12/11 12:00:27;;;;;;;73.22;18.02;;;;;;;;;;5076053;28;20081;-67
2021/12/11 12:02:55;;;;;;;58.83;18.65;;;;;;;;;;5075268;28;20147;-67
2021/12/11 12:05:22;;;;;;;73.53;18.58;;;;;;;;;;5075962;28;20048;-67
2021/12/11 12:07:49;;;;;;;106.40;18.90;;;;;;;;;;5075796;28;20067;-67
2021/12/11 12:10:18;;;;;;;105.63;18.88;;;;;;;;;;5075640;28;20059;-67
2021/12/11 12:12:44;;;;;;;67.10;18.35;;;;;;;;;;5075613;28;20051;-67
2021/12/11 12:15:13;;;;;;;66.43;19.25;;;;;;;;;;5075151;28;20044;-67
2021/12/11 12:17:39;;;;;;;;;;;;;;;;;;5077677;28;20044;-66
2021/12/11 12:20:09;;;;;;;93.35;19.52;;;;;;;;;;5078185;28;20421;-68
2021/12/11 12:22:35;;;;;;;71.68;18.98;;;;;;;;;;5075693;28;20744;-68
2021/12/11 12:25:02;;;;;;;83.35;20.27;;;;;;;;;;5076449;28;20624;-68
2021/12/11 12:27:30;;;;;;;96.70;20.67;;;;;;;;;;5076596;28;20597;-68
2021/12/11 12:29:58;;;;;;;88.60;20.20;;;;;;;;;;5075063;28;20052;-67
2021/12/11 12:32:30;;;;;;;70.72;20.52;;;;;;;;;;5075974;28;20300;-67
2021/12/11 12:34:59;;;;;;;82.40;20.65;;;;;;;;;;5075688;28;20054;-66
2021/12/11 12:37:25;;;;;;;60.92;23.52;;;;;;;;;;5075148;28;20317;-66
2021/12/11 12:39:54;;;;;;;92.07;19.08;;;;;;;;;;5075185;28;20044;-68
2021/12/11 12:42:26;;;;;;;;;;;;;;;;;;5075683;28;20185;-67
2021/12/11 12:44:55;;;;;;;81.22;19.10;;;;;;;;;;5075685;28;20632;-67
2021/12/11 12:47:24;;;;;;;107.50;19.98;;;;;;;;;;5076173;28;20116;-67
2021/12/11 12:49:52;;;;;;;46.10;18.02;;;;;;;;;;5075602;28;20056;-69
2021/12/11 12:52:27;;;;;;;63.72;18.52;;;;;;;;;;5075790;28;20048;-69
2021/12/11 12:54:54;;;;;;;92.65;19.20;;;;;;;;;;5075903;28;20126;-69
2021/12/11 12:57:22;;;;;;;72.38;19.05;;;;;;;;;;5076516;28;20633;-67
2021/12/11 13:00:24;;;;;;;74.05;19.55;;;;;;;;;;5076297;28;20520;-68
2021/12/11 13:02:52;;;;;;;74.15;18.65;;;;;;;;;;5023729;28;20129;-68
2021/12/11 13:05:23;;;;;;;45.47;17.70;;;;;;;;;;5022660;28;20048;-68
2021/12/11 13:08:11;;;;;;;49.80;18.70;;;;;;;;;;5022727;28;20664;-68
2021/12/11 13:10:42;;;;;;;62.35;18.10;;;;;;;;;;5023739;28;20044;-66
2021/12/11 13:13:10;;;;;;;41.25;16.73;;;;;;;;;;5025598;28;20052;-67
2021/12/11 13:15:41;;;;;;;39.60;16.80;;;;;;;;;;5023617;28;20044;-67
2021/12/11 13:18:10;;;;;;;37.20;17.25;;;;;;;;;;5026649;28;20041;-66
2021/12/11 13:20:48;;;;;;;50.58;17.58;;;;;;;;;;5026099;28;20502;-66
2021/12/11 13:23:15;;;;;;;49.95;16.73;;;;;;;;;;5026776;28;20709;-67
2021/12/11 13:25:44;;;;;;;35.90;16.50;;;;;;;;;;5026273;28;20357;-66
2021/12/11 13:28:12;;;;;;;34.05;16.35;;;;;;;;;;5026620;28;20056;-66
2021/12/11 13:30:45;;;;;;;38.10;16.90;;;;;;;;;;5026137;28;20049;-66
2021/12/11 13:33:11;;;;;;;30.38;16.08;;;;;;;;;;5026541;28;20871;-67
2021/12/11 13:35:42;;;;;;;34.83;17.55;;;;;;;;;;5026188;28;20068;-66
2021/12/11 13:38:10;;;;;;;40.78;17.20;;;;;;;;;;5077430;28;20376;-66
2021/12/11 13:40:40;;;;;;;36.47;17.73;;;;;;;;;;5076722;28;20044;-66
2021/12/11 13:43:06;;;;;;;32.80;15.38;;;;;;;;;;5078026;28;20048;-66
2021/12/11 13:45:34;;;;;;;34.88;16.67;;;;;;;;;;5077638;28;20504;-66
2021/12/11 13:48:02;;;;;;;37.78;17.70;;;;;;;;;;5077266;28;20520;-66
2021/12/11 13:50:31;;;;;;;34.10;16.38;;;;;;;;;;5077341;28;20053;-66
2021/12/11 13:52:58;;;;;;;36.60;17.85;;;;;;;;;;5078825;28;20050;-66
2021/12/11 13:55:25;;;;;;;37.63;17.33;;;;;;;;;;5079825;28;20056;-66
2021/12/11 13:57:59;;;;;;;35.75;17.38;;;;;;;;;;5079578;28;20048;-66
2021/12/11 14:00:31;;;;;;;38.60;18.95;;;;;;;;;;5079259;28;20044;-66
2021/12/11 14:03:08;;;;;;;39.30;19.20;;;;;;;;;;5079626;28;20059;-66
2021/12/11 14:05:35;;;;;;;39.95;19.45;;;;;;;;;;5078831;28;20459;-66
2021/12/11 14:08:08;;;;;;;38.55;19.73;;;;;;;;;;5079808;28;20056;-67
2021/12/11 14:10:35;;;;;;;41.95;19.95;;;;;;;;;;5079452;28;20043;-66
2021/12/11 14:13:03;;;;;;;42.17;20.13;;;;;;;;;;5079187;28;20543;-66
2021/12/11 14:15:30;;;;;;;45.33;21.08;;;;;;;;;;5077311;28;20074;-67
2021/12/11 14:17:57;;;;;;;41.10;19.98;;;;;;;;;;5078179;28;20491;-67
2021/12/11 14:20:26;;;;;;;35.78;18.33;;;;;;;;;;5077675;28;20044;-66
2021/12/11 14:22:53;;;;;;;44.20;20.60;;;;;;;;;;5078623;28;20560;-66
2021/12/11 14:25:21;;;;;;;43.92;20.98;;;;;;;;;;5078773;28;20055;-66
2021/12/11 14:27:49;;;;;;;40.67;19.27;;;;;;;;;;5078482;28;20055;-66
2021/12/11 14:30:16;;;;;;;54.90;22.60;;;;;;;;;;5078638;28;20059;-66
2021/12/11 14:32:45;;;;;;;45.30;21.50;;;;;;;;;;5079169;28;20051;-66
2021/12/11 14:35:13;;;;;;;48.35;22.83;;;;;;;;;;5077234;28;20051;-66
2021/12/11 14:37:40;;;;;;;44.20;20.48;;;;;;;;;;5078306;28;20147;-66
2021/12/11 14:40:08;;;;;;;46.63;21.10;;;;;;;;;;5079191;28;20044;-66
2021/12/11 14:42:34;;;;;;;43.95;21.33;;;;;;;;;;5078382;28;20048;-66
2021/12/11 14:45:04;;;;;;;40.35;19.80;;;;;;;;;;5078420;28;20054;-66
2021/12/11 14:47:30;;;;;;;41.03;19.80;;;;;;;;;;5078427;28;20048;-66
2021/12/11 14:49:57;;;;;;;39.65;19.08;;;;;;;;;;5079014;28;20477;-66